sensor_id;sensor_type;location;lat;lon;timestamp;temperature;humidity
11840;DHT22;5979;50.800;4.904;2022-12-08T00:00:51;4.90;99.90
11840;DHT22;5979;50.800;4.904;2022-12-08T00:03:17;4.80;99.90
11840;DHT22;5979;50.800;4.904;2022-12-08T00:05:44;4.80;99.90
11840;DHT22;5979;50.800;4.904;2022-12-08T00:08:28;4.80;99.90
11840;DHT22;5979;50.800;4.904;2022-12-08T00:11:14;4.80;99.90
11840;DHT22;5979;50.800;4.904;2022-12-08T00:13:39;4.80;99.90
11840;DHT22;5979;50.800;4.904;2022-12-08T00:16:05;4.80;99.90
11840;DHT22;5979;50.800;4.904;2022-12-08T00:18:31;4.80;99.90
11840;DHT22;5979;50.800;4.904;2022-12-08T00:20:58;4.80;99.90
11840;DHT22;5979;50.800;4.904;2022-12-08T00:23:24;4.80;99.90
11840;DHT22;5979;50.800;4.904;2022-12-08T00:25:50;4.70;99.90
11840;DHT22;5979;50.800;4.904;2022-12-08T00:28:16;4.70;99.90
11840;DHT22;5979;50.800;4.904;2022-12-08T00:30:42;4.70;99.90
11840;DHT22;5979;50.800;4.904;2022-12-08T00:33:09;4.70;99.90
11840;DHT22;5979;50.800;4.904;2022-12-08T00:35:34;4.70;99.90
11840;DHT22;5979;50.800;4.904;2022-12-08T00:38:00;4.70;99.90
11840;DHT22;5979;50.800;4.904;2022-12-08T00:40:26;4.70;99.90
11840;DHT22;5979;50.800;4.904;2022-12-08T00:42:52;4.70;99.90
11840;DHT22;5979;50.800;4.904;2022-12-08T00:45:18;4.70;99.90
11840;DHT22;5979;50.800;4.904;2022-12-08T00:47:43;4.70;99.90
11840;DHT22;5979;50.800;4.904;2022-12-08T00:50:10;4.70;99.90
11840;DHT22;5979;50.800;4.904;2022-12-08T00:52:36;4.80;99.90
11840;DHT22;5979;50.800;4.904;2022-12-08T00:55:02;4.70;99.90
11840;DHT22;5979;50.800;4.904;2022-12-08T00:57:28;4.70;99.90
11840;DHT22;5979;50.800;4.904;2022-12-08T00:59:54;4.70;99.90
11840;DHT22;5979;50.800;4.904;2022-12-08T01:02:19;4.70;99.90
11840;DHT22;5979;50.800;4.904;2022-12-08T01:04:45;4.70;99.90
11840;DHT22;5979;50.800;4.904;2022-12-08T01:07:11;4.70;99.90
11840;DHT22;5979;50.800;4.904;2022-12-08T01:09:36;4.60;99.90
11840;DHT22;5979;50.800;4.904;2022-12-08T01:12:02;4.60;99.90
11840;DHT22;5979;50.800;4.904;2022-12-08T01:14:28;4.50;99.90
11840;DHT22;5979;50.800;4.904;2022-12-08T01:16:54;4.60;99.90
11840;DHT22;5979;50.800;4.904;2022-12-08T01:19:19;4.50;99.90
11840;DHT22;5979;50.800;4.904;2022-12-08T01:21:45;4.50;99.90
11840;DHT22;5979;50.800;4.904;2022-12-08T01:24:16;4.50;99.90
11840;DHT22;5979;50.800;4.904;2022-12-08T01:26:42;4.50;99.90
11840;DHT22;5979;50.800;4.904;2022-12-08T01:29:08;4.50;99.90
11840;DHT22;5979;50.800;4.904;2022-12-08T01:31:34;4.40;99.90
11840;DHT22;5979;50.800;4.904;2022-12-08T01:34:00;4.40;99.90
11840;DHT22;5979;50.800;4.904;2022-12-08T01:36:28;4.40;99.90
11840;DHT22;5979;50.800;4.904;2022-12-08T01:38:58;4.40;99.90
11840;DHT22;5979;50.800;4.904;2022-12-08T01:41:26;4.40;99.90
11840;DHT22;5979;50.800;4.904;2022-12-08T01:46:35;4.40;99.90
11840;DHT22;5979;50.800;4.904;2022-12-08T01:49:06;4.40;99.90
11840;DHT22;5979;50.800;4.904;2022-12-08T01:51:37;4.50;99.90
11840;DHT22;5979;50.800;4.904;2022-12-08T01:54:06;4.40;99.90
11840;DHT22;5979;50.800;4.904;2022-12-08T01:59:18;4.40;99.90
11840;DHT22;5979;50.800;4.904;2022-12-08T02:01:44;4.40;99.90
11840;DHT22;5979;50.800;4.904;2022-12-08T02:04:10;4.40;99.90
11840;DHT22;5979;50.800;4.904;2022-12-08T02:06:39;4.30;99.90
11840;DHT22;5979;50.800;4.904;2022-12-08T02:09:06;4.30;99.90
11840;DHT22;5979;50.800;4.904;2022-12-08T02:11:32;4.30;99.90
11840;DHT22;5979;50.800;4.904;2022-12-08T02:13:59;4.30;99.90
11840;DHT22;5979;50.800;4.904;2022-12-08T02:16:42;4.20;99.90
11840;DHT22;5979;50.800;4.904;2022-12-08T02:22:10;4.20;99.90
11840;DHT22;5979;50.800;4.904;2022-12-08T02:24:48;4.20;99.90
11840;DHT22;5979;50.800;4.904;2022-12-08T02:33:07;4.20;99.90
11840;DHT22;5979;50.800;4.904;2022-12-08T02:35:48;4.20;99.90
11840;DHT22;5979;50.800;4.904;2022-12-08T02:38:27;4.20;99.90
11840;DHT22;5979;50.800;4.904;2022-12-08T02:44:21;4.20;99.90
11840;DHT22;5979;50.800;4.904;2022-12-08T02:47:00;4.20;99.90
11840;DHT22;5979;50.800;4.904;2022-12-08T02:49:32;4.20;99.90
11840;DHT22;5979;50.800;4.904;2022-12-08T02:54:53;4.10;99.90
11840;DHT22;5979;50.800;4.904;2022-12-08T03:00:08;4.10;99.90
11840;DHT22;5979;50.800;4.904;2022-12-08T03:11:34;4.00;99.90
11840;DHT22;5979;50.800;4.904;2022-12-08T03:14:03;4.00;99.90
11840;DHT22;5979;50.800;4.904;2022-12-08T03:16:31;4.00;99.90
11840;DHT22;5979;50.800;4.904;2022-12-08T03:19:18;4.00;99.90
11840;DHT22;5979;50.800;4.904;2022-12-08T03:21:49;4.00;99.90
11840;DHT22;5979;50.800;4.904;2022-12-08T03:24:16;3.90;99.90
11840;DHT22;5979;50.800;4.904;2022-12-08T03:26:59;3.90;99.90
11840;DHT22;5979;50.800;4.904;2022-12-08T03:29:27;3.90;99.90
11840;DHT22;5979;50.800;4.904;2022-12-08T03:31:57;3.90;99.90
11840;DHT22;5979;50.800;4.904;2022-12-08T03:34:26;3.80;99.90
11840;DHT22;5979;50.800;4.904;2022-12-08T03:36:52;3.80;99.90
11840;DHT22;5979;50.800;4.904;2022-12-08T03:39:18;3.80;99.90
11840;DHT22;5979;50.800;4.904;2022-12-08T03:41:44;3.70;99.90
11840;DHT22;5979;50.800;4.904;2022-12-08T03:44:11;3.70;99.90
11840;DHT22;5979;50.800;4.904;2022-12-08T03:46:37;3.70;99.90
11840;DHT22;5979;50.800;4.904;2022-12-08T03:49:03;3.70;99.90
11840;DHT22;5979;50.800;4.904;2022-12-08T03:51:28;3.60;99.90
11840;DHT22;5979;50.800;4.904;2022-12-08T03:53:54;3.60;99.90
11840;DHT22;5979;50.800;4.904;2022-12-08T03:58:52;3.50;99.90
11840;DHT22;5979;50.800;4.904;2022-12-08T04:01:18;3.50;99.90
11840;DHT22;5979;50.800;4.904;2022-12-08T04:03:44;3.40;99.90
11840;DHT22;5979;50.800;4.904;2022-12-08T04:06:09;3.40;99.90
11840;DHT22;5979;50.800;4.904;2022-12-08T04:08:35;3.40;99.90
11840;DHT22;5979;50.800;4.904;2022-12-08T04:11:01;3.30;99.90
11840;DHT22;5979;50.800;4.904;2022-12-08T04:13:27;3.40;99.90
11840;DHT22;5979;50.800;4.904;2022-12-08T04:15:53;3.40;99.90
11840;DHT22;5979;50.800;4.904;2022-12-08T04:18:18;3.40;99.90
11840;DHT22;5979;50.800;4.904;2022-12-08T04:20:44;3.50;99.90
11840;DHT22;5979;50.800;4.904;2022-12-08T04:23:10;3.50;99.90
11840;DHT22;5979;50.800;4.904;2022-12-08T04:25:37;3.60;99.90
11840;DHT22;5979;50.800;4.904;2022-12-08T04:28:03;3.60;99.90
11840;DHT22;5979;50.800;4.904;2022-12-08T04:30:30;3.60;99.90
11840;DHT22;5979;50.800;4.904;2022-12-08T04:32:55;3.70;99.90
11840;DHT22;5979;50.800;4.904;2022-12-08T04:35:21;3.70;99.90
11840;DHT22;5979;50.800;4.904;2022-12-08T04:37:47;3.70;99.90
11840;DHT22;5979;50.800;4.904;2022-12-08T04:40:13;3.70;99.90
11840;DHT22;5979;50.800;4.904;2022-12-08T04:42:38;3.80;99.90
11840;DHT22;5979;50.800;4.904;2022-12-08T04:45:05;3.80;99.90
11840;DHT22;5979;50.800;4.904;2022-12-08T04:47:31;3.80;99.90
11840;DHT22;5979;50.800;4.904;2022-12-08T04:49:57;3.80;99.90
11840;DHT22;5979;50.800;4.904;2022-12-08T04:52:23;3.80;99.90
11840;DHT22;5979;50.800;4.904;2022-12-08T04:54:49;3.80;99.90
11840;DHT22;5979;50.800;4.904;2022-12-08T04:57:14;3.80;99.90
11840;DHT22;5979;50.800;4.904;2022-12-08T04:59:40;3.80;99.90
11840;DHT22;5979;50.800;4.904;2022-12-08T05:02:06;3.80;99.90
11840;DHT22;5979;50.800;4.904;2022-12-08T05:04:32;3.80;99.90
11840;DHT22;5979;50.800;4.904;2022-12-08T05:06:57;3.80;99.90
11840;DHT22;5979;50.800;4.904;2022-12-08T05:09:23;3.80;99.90
11840;DHT22;5979;50.800;4.904;2022-12-08T05:11:49;3.80;99.90
11840;DHT22;5979;50.800;4.904;2022-12-08T05:14:16;3.90;99.90
11840;DHT22;5979;50.800;4.904;2022-12-08T05:16:42;3.80;99.90
11840;DHT22;5979;50.800;4.904;2022-12-08T05:19:08;3.80;99.90
11840;DHT22;5979;50.800;4.904;2022-12-08T05:21:34;3.80;99.90
11840;DHT22;5979;50.800;4.904;2022-12-08T05:23:59;3.80;99.90
11840;DHT22;5979;50.800;4.904;2022-12-08T05:26:25;3.80;99.90
11840;DHT22;5979;50.800;4.904;2022-12-08T05:28:51;3.80;99.90
11840;DHT22;5979;50.800;4.904;2022-12-08T05:31:17;3.80;99.90
11840;DHT22;5979;50.800;4.904;2022-12-08T05:33:44;3.80;99.90
11840;DHT22;5979;50.800;4.904;2022-12-08T05:36:12;3.80;99.90
11840;DHT22;5979;50.800;4.904;2022-12-08T05:38:39;3.80;99.90
11840;DHT22;5979;50.800;4.904;2022-12-08T05:41:07;3.80;99.90
11840;DHT22;5979;50.800;4.904;2022-12-08T05:43:33;3.80;99.90
11840;DHT22;5979;50.800;4.904;2022-12-08T05:45:59;3.80;99.90
11840;DHT22;5979;50.800;4.904;2022-12-08T05:48:24;3.80;99.90
11840;DHT22;5979;50.800;4.904;2022-12-08T05:50:51;3.80;99.90
11840;DHT22;5979;50.800;4.904;2022-12-08T05:53:18;3.70;99.90
11840;DHT22;5979;50.800;4.904;2022-12-08T05:55:44;3.70;99.90
11840;DHT22;5979;50.800;4.904;2022-12-08T05:58:16;3.70;99.90
11840;DHT22;5979;50.800;4.904;2022-12-08T06:00:42;3.70;99.90
11840;DHT22;5979;50.800;4.904;2022-12-08T06:03:10;3.70;99.90
11840;DHT22;5979;50.800;4.904;2022-12-08T06:05:36;3.60;99.90
11840;DHT22;5979;50.800;4.904;2022-12-08T06:08:02;3.60;99.90
11840;DHT22;5979;50.800;4.904;2022-12-08T06:10:28;3.60;99.90
11840;DHT22;5979;50.800;4.904;2022-12-08T06:12:54;3.70;99.90
11840;DHT22;5979;50.800;4.904;2022-12-08T06:15:19;3.60;99.90
11840;DHT22;5979;50.800;4.904;2022-12-08T06:17:45;3.60;99.90
11840;DHT22;5979;50.800;4.904;2022-12-08T06:20:11;3.60;99.90
11840;DHT22;5979;50.800;4.904;2022-12-08T06:22:36;3.60;99.90
11840;DHT22;5979;50.800;4.904;2022-12-08T06:25:03;3.60;99.90
11840;DHT22;5979;50.800;4.904;2022-12-08T06:27:28;3.70;99.90
11840;DHT22;5979;50.800;4.904;2022-12-08T06:29:54;3.70;99.90
11840;DHT22;5979;50.800;4.904;2022-12-08T06:32:20;3.70;99.90
11840;DHT22;5979;50.800;4.904;2022-12-08T06:34:46;3.70;99.90
11840;DHT22;5979;50.800;4.904;2022-12-08T06:37:11;3.70;99.90
11840;DHT22;5979;50.800;4.904;2022-12-08T06:39:37;3.70;99.90
11840;DHT22;5979;50.800;4.904;2022-12-08T06:42:03;3.70;99.90
11840;DHT22;5979;50.800;4.904;2022-12-08T06:44:47;3.70;99.90
11840;DHT22;5979;50.800;4.904;2022-12-08T06:47:13;3.70;99.90
11840;DHT22;5979;50.800;4.904;2022-12-08T06:49:39;3.70;99.90
11840;DHT22;5979;50.800;4.904;2022-12-08T06:52:04;3.70;99.90
11840;DHT22;5979;50.800;4.904;2022-12-08T06:54:30;3.70;99.90
11840;DHT22;5979;50.800;4.904;2022-12-08T06:56:56;3.70;99.90
11840;DHT22;5979;50.800;4.904;2022-12-08T06:59:21;3.70;99.90
11840;DHT22;5979;50.800;4.904;2022-12-08T07:01:50;3.70;99.90
11840;DHT22;5979;50.800;4.904;2022-12-08T07:04:16;3.70;99.90
11840;DHT22;5979;50.800;4.904;2022-12-08T07:06:42;3.70;99.90
11840;DHT22;5979;50.800;4.904;2022-12-08T07:09:08;3.70;99.90
11840;DHT22;5979;50.800;4.904;2022-12-08T07:11:34;3.70;99.90
11840;DHT22;5979;50.800;4.904;2022-12-08T07:14:00;3.70;99.90
11840;DHT22;5979;50.800;4.904;2022-12-08T07:16:25;3.70;99.90
11840;DHT22;5979;50.800;4.904;2022-12-08T07:18:51;3.70;99.90
11840;DHT22;5979;50.800;4.904;2022-12-08T07:21:17;3.70;99.90
11840;DHT22;5979;50.800;4.904;2022-12-08T07:23:47;3.70;99.90
11840;DHT22;5979;50.800;4.904;2022-12-08T07:26:13;3.70;99.90
11840;DHT22;5979;50.800;4.904;2022-12-08T07:28:40;3.70;99.90
11840;DHT22;5979;50.800;4.904;2022-12-08T07:31:07;3.70;99.90
11840;DHT22;5979;50.800;4.904;2022-12-08T07:33:33;3.60;99.90
11840;DHT22;5979;50.800;4.904;2022-12-08T07:36:02;3.60;99.90
11840;DHT22;5979;50.800;4.904;2022-12-08T07:38:29;3.60;99.90
11840;DHT22;5979;50.800;4.904;2022-12-08T07:40:55;3.60;99.90
11840;DHT22;5979;50.800;4.904;2022-12-08T07:43:21;3.60;99.90
11840;DHT22;5979;50.800;4.904;2022-12-08T07:45:48;3.60;99.90
11840;DHT22;5979;50.800;4.904;2022-12-08T07:48:13;3.70;99.90
11840;DHT22;5979;50.800;4.904;2022-12-08T07:50:40;3.70;99.90
11840;DHT22;5979;50.800;4.904;2022-12-08T07:53:06;3.70;99.90
11840;DHT22;5979;50.800;4.904;2022-12-08T07:55:31;3.60;99.90
11840;DHT22;5979;50.800;4.904;2022-12-08T07:57:57;3.60;99.90
11840;DHT22;5979;50.800;4.904;2022-12-08T08:00:23;3.60;99.90
11840;DHT22;5979;50.800;4.904;2022-12-08T08:02:49;3.60;99.90
11840;DHT22;5979;50.800;4.904;2022-12-08T08:05:14;3.60;99.90
11840;DHT22;5979;50.800;4.904;2022-12-08T08:07:41;3.60;99.90
11840;DHT22;5979;50.800;4.904;2022-12-08T08:10:09;3.70;99.90
11840;DHT22;5979;50.800;4.904;2022-12-08T08:12:36;3.70;99.90
11840;DHT22;5979;50.800;4.904;2022-12-08T08:15:04;3.80;99.90
11840;DHT22;5979;50.800;4.904;2022-12-08T08:17:35;3.80;99.90
11840;DHT22;5979;50.800;4.904;2022-12-08T08:20:04;3.80;99.90
11840;DHT22;5979;50.800;4.904;2022-12-08T08:22:33;3.80;99.90
11840;DHT22;5979;50.800;4.904;2022-12-08T08:24:59;3.90;99.90
11840;DHT22;5979;50.800;4.904;2022-12-08T08:27:25;3.90;99.90
11840;DHT22;5979;50.800;4.904;2022-12-08T08:29:51;3.90;99.90
11840;DHT22;5979;50.800;4.904;2022-12-08T08:32:17;4.00;99.90
11840;DHT22;5979;50.800;4.904;2022-12-08T08:34:43;4.00;99.90
11840;DHT22;5979;50.800;4.904;2022-12-08T08:37:09;4.00;99.90
11840;DHT22;5979;50.800;4.904;2022-12-08T08:39:34;4.00;99.90
11840;DHT22;5979;50.800;4.904;2022-12-08T08:42:00;4.00;99.90
11840;DHT22;5979;50.800;4.904;2022-12-08T08:44:26;4.00;99.90
11840;DHT22;5979;50.800;4.904;2022-12-08T08:46:51;4.00;99.90
11840;DHT22;5979;50.800;4.904;2022-12-08T08:49:17;4.00;99.90
11840;DHT22;5979;50.800;4.904;2022-12-08T08:51:43;4.00;99.90
11840;DHT22;5979;50.800;4.904;2022-12-08T08:54:09;4.00;99.90
11840;DHT22;5979;50.800;4.904;2022-12-08T08:56:34;4.00;99.90
11840;DHT22;5979;50.800;4.904;2022-12-08T08:59:01;4.00;99.90
11840;DHT22;5979;50.800;4.904;2022-12-08T09:01:27;4.10;99.90
11840;DHT22;5979;50.800;4.904;2022-12-08T09:03:54;4.10;99.90
11840;DHT22;5979;50.800;4.904;2022-12-08T09:06:20;4.10;99.90
11840;DHT22;5979;50.800;4.904;2022-12-08T09:08:46;4.10;99.90
11840;DHT22;5979;50.800;4.904;2022-12-08T09:11:13;4.10;99.90
11840;DHT22;5979;50.800;4.904;2022-12-08T09:13:39;4.10;99.90
11840;DHT22;5979;50.800;4.904;2022-12-08T09:16:06;4.10;99.90
11840;DHT22;5979;50.800;4.904;2022-12-08T09:18:32;4.10;99.90
11840;DHT22;5979;50.800;4.904;2022-12-08T09:21:10;4.10;99.90
11840;DHT22;5979;50.800;4.904;2022-12-08T09:23:41;4.10;99.90
11840;DHT22;5979;50.800;4.904;2022-12-08T09:26:08;4.10;99.90
11840;DHT22;5979;50.800;4.904;2022-12-08T09:28:33;4.20;99.90
11840;DHT22;5979;50.800;4.904;2022-12-08T09:30:59;4.20;99.90
11840;DHT22;5979;50.800;4.904;2022-12-08T09:33:25;4.20;99.90
11840;DHT22;5979;50.800;4.904;2022-12-08T09:35:51;4.20;99.90
11840;DHT22;5979;50.800;4.904;2022-12-08T09:38:17;4.30;99.90
11840;DHT22;5979;50.800;4.904;2022-12-08T09:40:52;4.40;99.90
11840;DHT22;5979;50.800;4.904;2022-12-08T09:46:31;4.40;99.90
11840;DHT22;5979;50.800;4.904;2022-12-08T09:48:59;4.50;99.90
11840;DHT22;5979;50.800;4.904;2022-12-08T09:51:37;4.50;99.90
11840;DHT22;5979;50.800;4.904;2022-12-08T09:54:14;4.60;99.90
11840;DHT22;5979;50.800;4.904;2022-12-08T09:56:41;4.60;99.90
11840;DHT22;5979;50.800;4.904;2022-12-08T10:01:36;4.70;99.90
11840;DHT22;5979;50.800;4.904;2022-12-08T10:04:19;4.70;99.90
11840;DHT22;5979;50.800;4.904;2022-12-08T10:17:50;4.90;99.90
11840;DHT22;5979;50.800;4.904;2022-12-08T10:20:20;4.90;99.90
11840;DHT22;5979;50.800;4.904;2022-12-08T10:22:50;5.00;99.90
11840;DHT22;5979;50.800;4.904;2022-12-08T10:25:20;5.00;99.90
11840;DHT22;5979;50.800;4.904;2022-12-08T10:27:52;5.00;99.90
11840;DHT22;5979;50.800;4.904;2022-12-08T10:30:19;5.00;99.90
11840;DHT22;5979;50.800;4.904;2022-12-08T10:32:48;5.10;99.90
11840;DHT22;5979;50.800;4.904;2022-12-08T10:35:17;5.10;99.90
11840;DHT22;5979;50.800;4.904;2022-12-08T10:37:56;5.10;99.90
11840;DHT22;5979;50.800;4.904;2022-12-08T10:40:28;5.10;99.90
11840;DHT22;5979;50.800;4.904;2022-12-08T10:42:56;5.20;99.90
11840;DHT22;5979;50.800;4.904;2022-12-08T10:45:28;5.10;99.90
11840;DHT22;5979;50.800;4.904;2022-12-08T10:48:08;5.10;99.90
11840;DHT22;5979;50.800;4.904;2022-12-08T10:50:56;5.20;99.90
11840;DHT22;5979;50.800;4.904;2022-12-08T10:53:27;5.20;99.90
11840;DHT22;5979;50.800;4.904;2022-12-08T10:58:39;5.30;99.90
11840;DHT22;5979;50.800;4.904;2022-12-08T11:03:50;5.50;99.90
11840;DHT22;5979;50.800;4.904;2022-12-08T11:06:20;5.50;99.90
11840;DHT22;5979;50.800;4.904;2022-12-08T11:08:53;5.50;99.90
11840;DHT22;5979;50.800;4.904;2022-12-08T11:11:20;5.50;99.90
11840;DHT22;5979;50.800;4.904;2022-12-08T11:13:48;5.50;99.90
11840;DHT22;5979;50.800;4.904;2022-12-08T11:16:15;5.50;99.90
11840;DHT22;5979;50.800;4.904;2022-12-08T11:18:54;5.50;99.90
11840;DHT22;5979;50.800;4.904;2022-12-08T11:21:32;5.50;99.90
11840;DHT22;5979;50.800;4.904;2022-12-08T11:24:30;5.50;99.90
11840;DHT22;5979;50.800;4.904;2022-12-08T11:27:03;5.60;99.90
11840;DHT22;5979;50.800;4.904;2022-12-08T11:29:32;5.60;99.90
11840;DHT22;5979;50.800;4.904;2022-12-08T11:32:11;5.60;99.90
11840;DHT22;5979;50.800;4.904;2022-12-08T11:37:30;5.60;99.90
11840;DHT22;5979;50.800;4.904;2022-12-08T11:40:02;5.70;99.90
11840;DHT22;5979;50.800;4.904;2022-12-08T11:42:34;5.70;99.90
11840;DHT22;5979;50.800;4.904;2022-12-08T11:45:10;5.60;99.90
11840;DHT22;5979;50.800;4.904;2022-12-08T11:47:43;5.70;99.90
11840;DHT22;5979;50.800;4.904;2022-12-08T11:50:38;5.70;99.90
11840;DHT22;5979;50.800;4.904;2022-12-08T11:53:07;5.60;99.90
11840;DHT22;5979;50.800;4.904;2022-12-08T11:55:46;5.70;99.90
11840;DHT22;5979;50.800;4.904;2022-12-08T11:59:16;5.70;99.90
11840;DHT22;5979;50.800;4.904;2022-12-08T12:01:19;5.80;99.90
11840;DHT22;5979;50.800;4.904;2022-12-08T12:04:11;5.80;99.90
11840;DHT22;5979;50.800;4.904;2022-12-08T12:22:45;6.30;99.90
11840;DHT22;5979;50.800;4.904;2022-12-08T12:25:20;6.40;99.90
11840;DHT22;5979;50.800;4.904;2022-12-08T12:27:48;6.40;99.90
11840;DHT22;5979;50.800;4.904;2022-12-08T12:30:26;6.50;99.90
11840;DHT22;5979;50.800;4.904;2022-12-08T12:32:56;6.50;99.90
11840;DHT22;5979;50.800;4.904;2022-12-08T12:35:36;6.60;99.90
11840;DHT22;5979;50.800;4.904;2022-12-08T12:38:07;6.60;99.90
11840;DHT22;5979;50.800;4.904;2022-12-08T12:41:04;6.70;99.90
11840;DHT22;5979;50.800;4.904;2022-12-08T12:43:36;6.70;99.90
11840;DHT22;5979;50.800;4.904;2022-12-08T12:48:47;6.70;99.90
11840;DHT22;5979;50.800;4.904;2022-12-08T12:54:25;6.70;99.90
11840;DHT22;5979;50.800;4.904;2022-12-08T12:56:56;6.70;99.90
11840;DHT22;5979;50.800;4.904;2022-12-08T12:59:45;6.80;99.90
11840;DHT22;5979;50.800;4.904;2022-12-08T13:08:19;6.90;99.90
11840;DHT22;5979;50.800;4.904;2022-12-08T13:11:07;6.90;99.90
11840;DHT22;5979;50.800;4.904;2022-12-08T13:13:35;6.90;99.90
11840;DHT22;5979;50.800;4.904;2022-12-08T13:16:15;6.90;99.90
11840;DHT22;5979;50.800;4.904;2022-12-08T13:18:49;6.80;99.90
11840;DHT22;5979;50.800;4.904;2022-12-08T13:21:18;6.80;99.90
11840;DHT22;5979;50.800;4.904;2022-12-08T13:26:16;6.60;99.90
11840;DHT22;5979;50.800;4.904;2022-12-08T13:29:04;6.60;99.90
11840;DHT22;5979;50.800;4.904;2022-12-08T13:31:50;6.60;99.90
11840;DHT22;5979;50.800;4.904;2022-12-08T13:34:39;6.50;99.90
11840;DHT22;5979;50.800;4.904;2022-12-08T13:45:13;6.30;99.90
11840;DHT22;5979;50.800;4.904;2022-12-08T13:48:01;6.30;99.90
11840;DHT22;5979;50.800;4.904;2022-12-08T13:50:32;6.20;99.90
11840;DHT22;5979;50.800;4.904;2022-12-08T13:53:09;6.20;99.90
11840;DHT22;5979;50.800;4.904;2022-12-08T13:55:47;6.20;99.90
11840;DHT22;5979;50.800;4.904;2022-12-08T13:58:31;6.10;99.90
11840;DHT22;5979;50.800;4.904;2022-12-08T14:01:19;6.10;99.90
11840;DHT22;5979;50.800;4.904;2022-12-08T14:03:47;6.10;99.90
11840;DHT22;5979;50.800;4.904;2022-12-08T14:06:28;6.00;99.90
11840;DHT22;5979;50.800;4.904;2022-12-08T14:08:58;6.00;99.90
11840;DHT22;5979;50.800;4.904;2022-12-08T14:11:40;6.00;99.90
11840;DHT22;5979;50.800;4.904;2022-12-08T14:16:39;5.90;99.90
11840;DHT22;5979;50.800;4.904;2022-12-08T14:19:15;5.90;99.90
11840;DHT22;5979;50.800;4.904;2022-12-08T14:21:40;5.90;99.90
11840;DHT22;5979;50.800;4.904;2022-12-08T14:24:08;5.90;99.90
11840;DHT22;5979;50.800;4.904;2022-12-08T14:26:35;5.90;99.90
11840;DHT22;5979;50.800;4.904;2022-12-08T14:29:01;5.90;99.90
11840;DHT22;5979;50.800;4.904;2022-12-08T14:31:27;5.80;99.90
11840;DHT22;5979;50.800;4.904;2022-12-08T14:33:54;5.80;99.90
11840;DHT22;5979;50.800;4.904;2022-12-08T14:36:19;5.80;99.90
11840;DHT22;5979;50.800;4.904;2022-12-08T14:38:46;5.80;99.90
11840;DHT22;5979;50.800;4.904;2022-12-08T14:41:12;5.70;99.90
11840;DHT22;5979;50.800;4.904;2022-12-08T14:43:39;5.60;99.90
11840;DHT22;5979;50.800;4.904;2022-12-08T14:46:19;5.60;99.90
11840;DHT22;5979;50.800;4.904;2022-12-08T14:48:45;5.60;99.90
11840;DHT22;5979;50.800;4.904;2022-12-08T14:51:19;5.50;99.90
11840;DHT22;5979;50.800;4.904;2022-12-08T14:59:11;5.40;99.90
11840;DHT22;5979;50.800;4.904;2022-12-08T15:01:39;5.30;99.90
11840;DHT22;5979;50.800;4.904;2022-12-08T15:09:24;5.30;99.90
11840;DHT22;5979;50.800;4.904;2022-12-08T15:12:13;5.30;99.90
11840;DHT22;5979;50.800;4.904;2022-12-08T15:17:40;5.20;99.90
11840;DHT22;5979;50.800;4.904;2022-12-08T15:22:51;5.00;99.90
11840;DHT22;5979;50.800;4.904;2022-12-08T15:25:17;4.90;99.90
11840;DHT22;5979;50.800;4.904;2022-12-08T15:27:43;4.80;99.90
11840;DHT22;5979;50.800;4.904;2022-12-08T15:30:14;4.80;99.90
11840;DHT22;5979;50.800;4.904;2022-12-08T15:32:40;4.70;99.90
11840;DHT22;5979;50.800;4.904;2022-12-08T15:35:06;4.60;99.90
11840;DHT22;5979;50.800;4.904;2022-12-08T15:37:32;4.50;99.90
11840;DHT22;5979;50.800;4.904;2022-12-08T15:39:57;4.50;99.90
11840;DHT22;5979;50.800;4.904;2022-12-08T15:42:23;4.40;99.90
11840;DHT22;5979;50.800;4.904;2022-12-08T15:44:49;4.40;99.90
11840;DHT22;5979;50.800;4.904;2022-12-08T15:47:17;4.40;99.90
11840;DHT22;5979;50.800;4.904;2022-12-08T15:49:45;4.40;99.90
11840;DHT22;5979;50.800;4.904;2022-12-08T15:52:13;4.40;99.90
11840;DHT22;5979;50.800;4.904;2022-12-08T15:54:40;4.50;99.90
11840;DHT22;5979;50.800;4.904;2022-12-08T15:57:07;4.50;99.90
11840;DHT22;5979;50.800;4.904;2022-12-08T15:59:39;4.50;99.90
11840;DHT22;5979;50.800;4.904;2022-12-08T16:02:05;4.50;99.90
11840;DHT22;5979;50.800;4.904;2022-12-08T16:04:30;4.60;99.90
11840;DHT22;5979;50.800;4.904;2022-12-08T16:06:56;4.60;99.90
11840;DHT22;5979;50.800;4.904;2022-12-08T16:09:40;4.60;99.90
11840;DHT22;5979;50.800;4.904;2022-12-08T16:12:15;4.60;99.90
11840;DHT22;5979;50.800;4.904;2022-12-08T16:15:00;4.60;99.90
11840;DHT22;5979;50.800;4.904;2022-12-08T16:17:26;4.60;99.90
11840;DHT22;5979;50.800;4.904;2022-12-08T16:19:52;4.60;99.90
11840;DHT22;5979;50.800;4.904;2022-12-08T16:22:20;4.60;99.90
11840;DHT22;5979;50.800;4.904;2022-12-08T16:24:46;4.60;99.90
11840;DHT22;5979;50.800;4.904;2022-12-08T16:27:24;4.70;99.90
11840;DHT22;5979;50.800;4.904;2022-12-08T16:29:52;4.70;99.90
11840;DHT22;5979;50.800;4.904;2022-12-08T16:32:18;4.70;99.90
11840;DHT22;5979;50.800;4.904;2022-12-08T16:34:44;4.70;99.90
11840;DHT22;5979;50.800;4.904;2022-12-08T16:37:15;4.70;99.90
11840;DHT22;5979;50.800;4.904;2022-12-08T16:39:41;4.70;99.90
11840;DHT22;5979;50.800;4.904;2022-12-08T16:42:12;4.70;99.90
11840;DHT22;5979;50.800;4.904;2022-12-08T16:44:57;4.70;99.90
11840;DHT22;5979;50.800;4.904;2022-12-08T16:47:23;4.70;99.90
11840;DHT22;5979;50.800;4.904;2022-12-08T16:49:49;4.70;99.90
11840;DHT22;5979;50.800;4.904;2022-12-08T16:52:16;4.70;99.90
11840;DHT22;5979;50.800;4.904;2022-12-08T16:54:42;4.70;99.90
11840;DHT22;5979;50.800;4.904;2022-12-08T16:57:07;4.70;99.90
11840;DHT22;5979;50.800;4.904;2022-12-08T16:59:33;4.80;99.90
11840;DHT22;5979;50.800;4.904;2022-12-08T17:01:59;4.80;99.90
11840;DHT22;5979;50.800;4.904;2022-12-08T17:04:24;4.80;99.90
11840;DHT22;5979;50.800;4.904;2022-12-08T17:06:50;4.90;99.90
11840;DHT22;5979;50.800;4.904;2022-12-08T17:09:17;4.90;99.90
11840;DHT22;5979;50.800;4.904;2022-12-08T17:11:43;4.80;99.90
11840;DHT22;5979;50.800;4.904;2022-12-08T17:14:13;4.80;99.90
11840;DHT22;5979;50.800;4.904;2022-12-08T17:16:39;4.70;99.90
11840;DHT22;5979;50.800;4.904;2022-12-08T17:19:05;4.70;99.90
11840;DHT22;5979;50.800;4.904;2022-12-08T17:21:31;4.60;99.90
11840;DHT22;5979;50.800;4.904;2022-12-08T17:23:56;4.60;99.90
11840;DHT22;5979;50.800;4.904;2022-12-08T17:26:22;4.50;99.90
11840;DHT22;5979;50.800;4.904;2022-12-08T17:28:48;4.50;99.90
11840;DHT22;5979;50.800;4.904;2022-12-08T17:31:15;4.40;99.90
11840;DHT22;5979;50.800;4.904;2022-12-08T17:33:41;4.40;99.90
11840;DHT22;5979;50.800;4.904;2022-12-08T17:36:10;4.30;99.90
11840;DHT22;5979;50.800;4.904;2022-12-08T17:38:36;4.30;99.90
11840;DHT22;5979;50.800;4.904;2022-12-08T17:41:04;4.30;99.90
11840;DHT22;5979;50.800;4.904;2022-12-08T17:43:30;4.20;99.90
11840;DHT22;5979;50.800;4.904;2022-12-08T17:45:56;4.30;99.90
11840;DHT22;5979;50.800;4.904;2022-12-08T17:48:22;4.20;99.90
11840;DHT22;5979;50.800;4.904;2022-12-08T17:50:48;4.20;99.90
11840;DHT22;5979;50.800;4.904;2022-12-08T17:53:13;4.20;99.90
11840;DHT22;5979;50.800;4.904;2022-12-08T17:55:39;4.20;99.90
11840;DHT22;5979;50.800;4.904;2022-12-08T17:58:07;4.20;99.90
11840;DHT22;5979;50.800;4.904;2022-12-08T18:00:34;4.20;99.90
11840;DHT22;5979;50.800;4.904;2022-12-08T18:03:00;4.10;99.90
11840;DHT22;5979;50.800;4.904;2022-12-08T18:05:26;4.10;99.90
11840;DHT22;5979;50.800;4.904;2022-12-08T18:07:52;4.10;99.90
11840;DHT22;5979;50.800;4.904;2022-12-08T18:10:18;4.00;99.90